Eldorado, WI (54932)

9:08 PM CST on November 21, 2014 (GMT -0600)
N9QBW | Change Station
CLOSE
Current Station
Personal Weather Station
Location: Eldorado, WI
Elevation: 897 ft
Nearby Weather Stations
Active Advisory: Freezing Rain Advisory

Elev 897 ft 43.82 °N, 88.62 °W | Updated 0 second ago

Partly Cloudy
Partly Cloudy
25.5 °F
Feels Like 26 °F
N
0.0
Wind Variable Wind from SE
Gusts 8.3 mph

Today
High -- | Low -- °F
--% Chance of Precip.
Yesterday
High -- | Low -- °F
Precip. -- in
6:56 AM 4:23 PM
Waning Crescent, 0% visible
Pressure 30.16 in
Visibility 10.0 miles
Clouds Clear
Windchill 26 °F
Dew Point -2 °F
Humidity 30%
Rainfall 0.00 in
Snow Depth Not available.
UV 0 out of 12
Pollen .10 out of 12
Air Quality Not available.
Flu Activity Not available.
METAR KFLD 220253Z AUTO 19016G23KT 10SM CLR M02/M13 A3011 RMK AO2 SLP211 T10171128 58028

More Conditions Fewer Conditions

Pressure 30.16 in
Visibility 10.0 miles
Clouds Clear
Windchill 26 °F
Dew Point -2 °F
Humidity 30%
Rainfall 0.00 in
Snow Depth Not available.
UV 0 out of 12
Pollen .10 out of 12
Air Quality Not available.
Flu Activity Not available.
METAR KFLD 220253Z AUTO 19016G23KT 10SM CLR M02/M13 A3011 RMK AO2 SLP211 T10171128 58028

More Conditions Fewer Conditions

10-Day Weather Forecast

Almanac

Astronomy

Nov. 21, 2014 Rise Set
Actual Time
Civil Twilight
Nautical Twilight
Astronomical Twilight
Moon
Length of Visible Light
Length of Day
Tomorrow will be .
, % of the Moon is Illuminated

Today's Extremes

State Highs State Lows

Community

WunderPhotos

Upload Photos

1,772,770 photos uploaded!

WunderBlogs® & News

Nearby

Air Quality

  Air Quality AQ Index Pollutant
Not available.

Snow Depth

Station Depth Elevation

Earthquake Activity

City Distance Mag. Time & Date
Minimum magnitude displayed is 2.5.

Coastal Water Temperatures

Place Temperature

Nearby Weather Stations